Airport View

Enter AWOS ICAO identifier for current METAR.

ex. KFNL

KFCI 212256Z AUTO 17008KT 10SM CLR 28/17 A3017 RMK AO2 SLP225 T02780167

21 Sep 2019 23:30

Frequency: 128.625

Phone: 804-271-8426

Other Area AWOS: KRIC - KPTB - KOFP - KW96

TAF KRIC 211720Z 2118/2218 20007KT P6SM SKC FM212300 17004KT P6SM SCT080 FM221400 20004KT P6SM SKC